createdAt,value
2022-08-26T00:02:20.816Z,12.85
2022-08-26T00:07:24.585Z,15.05
2022-08-26T00:12:31.476Z,13.93
2022-08-26T00:17:40.354Z,13.82
2022-08-26T00:22:43.757Z,19.55
2022-08-26T00:27:46.488Z,13.48
2022-08-26T00:32:49.008Z,14.95
2022-08-26T00:37:52.319Z,13.40
2022-08-26T00:42:54.495Z,14.43
2022-08-26T00:48:00.975Z,16.48
2022-08-26T00:53:10.625Z,16.00
2022-08-26T00:58:12.444Z,15.10
2022-08-26T01:03:16.904Z,16.87
2022-08-26T01:08:20.084Z,14.73
2022-08-26T01:13:22.938Z,13.15
2022-08-26T01:18:26.356Z,14.35
2022-08-26T01:23:33.319Z,478.60
2022-08-26T01:28:37.222Z,17.67
2022-08-26T01:33:46.059Z,14.60
2022-08-26T01:38:49.352Z,14.68
2022-08-26T01:43:54.421Z,14.45
2022-08-26T01:48:59.702Z,16.30
2022-08-26T01:54:03.786Z,16.30
2022-08-26T01:59:12.239Z,16.50
2022-08-26T02:04:19.965Z,19.00
2022-08-26T02:09:24.843Z,15.48
2022-08-26T02:14:36.523Z,15.93
2022-08-26T02:19:47.264Z,17.15
2022-08-26T02:24:53.715Z,15.88
2022-08-26T02:29:58.580Z,17.60
2022-08-26T02:40:06.917Z,17.35
2022-08-26T02:45:10.097Z,17.27
2022-08-26T02:50:12.142Z,148.07
2022-08-26T02:55:15.811Z,68.82
2022-08-26T03:00:17.876Z,15.10
2022-08-26T03:05:20.524Z,12.55
2022-08-26T03:10:23.720Z,10.80
2022-08-26T03:15:27.805Z,19.58
2022-08-26T03:20:29.658Z,11.63
2022-08-26T03:25:32.813Z,12.50
2022-08-26T03:30:34.596Z,11.35
2022-08-26T03:35:36.412Z,11.60
2022-08-26T03:40:42.188Z,11.45
2022-08-26T03:45:45.069Z,11.43
2022-08-26T03:50:48.761Z,14.43
2022-08-26T03:55:52.201Z,12.10
2022-08-26T04:00:55.372Z,50.17
2022-08-26T04:05:57.648Z,24.98
2022-08-26T04:11:00.799Z,36.20
2022-08-26T04:16:03.047Z,21.08
2022-08-26T04:21:05.464Z,21.08
2022-08-26T04:26:11.085Z,79.90
2022-08-26T04:31:13.967Z,1999.90
2022-08-26T04:36:16.598Z,1999.90
2022-08-26T04:41:20.598Z,1999.90
2022-08-26T04:46:24.096Z,1999.90
2022-08-26T04:51:25.921Z,1999.90
2022-08-26T04:56:34.131Z,1999.90
2022-08-26T05:01:39.534Z,1999.90
2022-08-26T05:06:41.553Z,1999.90
2022-08-26T05:11:44.700Z,1999.90
2022-08-26T05:16:50.705Z,1999.90
2022-08-26T05:21:52.548Z,1999.90
2022-08-26T05:26:56.436Z,1999.90
2022-08-26T05:31:58.486Z,1999.90
2022-08-26T05:37:00.794Z,1999.90
2022-08-26T05:42:04.421Z,1999.90
2022-08-26T05:47:06.457Z,1999.90
2022-08-26T05:52:08.859Z,1999.90
2022-08-26T05:57:13.525Z,10.38
2022-08-26T06:02:15.396Z,10.48
2022-08-26T06:07:17.152Z,140.85
2022-08-26T06:12:21.618Z,31.70
2022-08-26T06:17:23.356Z,15.05
2022-08-26T06:22:25.407Z,9.20
2022-08-26T06:27:32.595Z,9.55
2022-08-26T06:32:34.700Z,9.45
2022-08-26T06:37:36.947Z,716.65
2022-08-26T06:42:40.064Z,48.50
2022-08-26T06:47:41.857Z,28.17
2022-08-26T06:52:43.672Z,18.27
2022-08-26T06:57:46.871Z,20.05
2022-08-26T07:02:48.699Z,18.67
2022-08-26T07:07:50.612Z,18.85
2022-08-26T07:12:53.816Z,24.20
2022-08-26T07:17:55.579Z,43.58
2022-08-26T07:22:57.340Z,1999.90
2022-08-26T07:28:00.871Z,1999.90
2022-08-26T07:33:05.399Z,1999.90
2022-08-26T07:38:10.625Z,1999.90
2022-08-26T07:43:14.899Z,1999.90
2022-08-26T07:48:16.817Z,1999.90
2022-08-26T07:53:24.166Z,1999.90
2022-08-26T07:58:27.932Z,1999.90
2022-08-26T08:03:29.701Z,1999.90
2022-08-26T08:08:32.220Z,1999.90
2022-08-26T08:13:36.086Z,1999.90
2022-08-26T08:18:38.097Z,1008.62
2022-08-26T08:23:42.229Z,36.00
2022-08-26T08:28:45.679Z,35.95
2022-08-26T08:33:49.831Z,1999.90
2022-08-26T08:38:53.592Z,11.77
2022-08-26T08:43:59.994Z,12.25
2022-08-26T10:10:15.407Z,12.95
2022-08-26T10:15:19.989Z,14.23
2022-08-26T10:20:26.969Z,16.37
2022-08-26T10:25:37.389Z,17.90
2022-08-26T10:30:45.969Z,18.90
2022-08-26T10:35:51.957Z,19.10
2022-08-26T10:41:00.853Z,17.10
2022-08-26T10:46:07.029Z,19.17
2022-08-26T10:51:10.878Z,20.77
2022-08-26T10:56:40.560Z,18.42
2022-08-26T11:01:50.879Z,48.83
2022-08-26T11:07:22.988Z,14.10
2022-08-26T11:12:49.594Z,16.83
2022-08-26T11:17:57.987Z,38.50
2022-08-26T11:23:35.326Z,22.23
2022-08-26T11:33:50.931Z,19.73
2022-08-26T11:38:54.397Z,16.95
2022-08-26T11:43:58.261Z,19.55
2022-08-26T11:49:05.776Z,15.98
2022-08-26T11:59:23.202Z,21.85
2022-08-26T12:04:29.937Z,17.35
2022-08-26T12:09:33.773Z,16.58
2022-08-26T12:14:37.096Z,16.53
2022-08-26T12:19:41.624Z,14.98
2022-08-26T12:24:48.250Z,14.50
2022-08-26T12:30:04.932Z,12.65
2022-08-26T12:35:10.397Z,12.70
2022-08-26T12:40:34.125Z,12.23
2022-08-26T12:45:39.810Z,17.95
2022-08-26T12:50:47.918Z,14.63
2022-08-26T12:55:51.774Z,13.10
2022-08-26T13:01:22.448Z,12.82
2022-08-26T13:06:27.221Z,11.45
2022-08-26T13:11:31.061Z,15.35
2022-08-26T13:16:34.949Z,11.12
2022-08-26T13:21:43.284Z,14.93
2022-08-26T13:26:46.672Z,13.85
2022-08-26T13:31:51.073Z,12.93
2022-08-26T13:41:55.901Z,8.02
2022-08-26T13:46:59.412Z,12.85
2022-08-26T13:52:01.321Z,10.32
2022-08-26T13:57:03.303Z,21.75
2022-08-26T14:02:06.580Z,21.37
2022-08-26T14:07:10.483Z,20.88
2022-08-26T14:12:12.387Z,17.35
2022-08-26T14:34:05.844Z,8.35
2022-08-26T14:45:08.343Z,20.27
2022-08-26T14:50:10.360Z,22.58
2022-08-26T15:00:36.374Z,1999.90
2022-08-26T15:06:03.659Z,1999.90
2022-08-26T15:11:10.342Z,1999.90
2022-08-26T15:22:03.467Z,111.72
2022-08-26T15:27:05.295Z,210.73
2022-08-26T15:32:07.447Z,25.80
2022-08-26T15:37:10.663Z,52.50
2022-08-26T15:42:12.468Z,316.00
2022-08-26T15:47:14.553Z,27.87
2022-08-26T15:57:37.104Z,36.20
2022-08-26T16:02:39.526Z,27.02
2022-08-26T16:07:41.272Z,28.48
2022-08-26T16:12:44.455Z,42.30
2022-08-26T16:17:46.258Z,24.92
2022-08-26T16:22:48.144Z,24.77
2022-08-26T16:27:51.468Z,27.55
2022-08-26T16:32:53.250Z,27.02
2022-08-26T16:37:55.107Z,29.33
2022-08-26T16:42:58.241Z,24.65
2022-08-26T16:48:00.027Z,30.27
2022-08-26T16:53:01.809Z,34.45
2022-08-26T16:58:05.546Z,37.63
2022-08-26T17:03:07.423Z,34.38
2022-08-26T17:08:09.425Z,50.03
2022-08-26T17:13:12.692Z,37.85
2022-08-26T17:18:35.543Z,33.75
2022-08-26T17:23:37.885Z,244.77
2022-08-26T17:28:41.142Z,36.05
2022-08-26T17:33:43.032Z,44.03
2022-08-26T17:38:44.894Z,38.17
2022-08-26T17:43:51.507Z,36.00
2022-08-26T17:48:53.393Z,33.08
2022-08-26T17:53:55.237Z,32.63
2022-08-26T17:59:03.470Z,29.27
2022-08-26T18:04:06.264Z,31.17
2022-08-26T18:09:08.084Z,28.87
2022-08-26T18:14:11.411Z,24.75
2022-08-26T18:19:13.172Z,27.75
2022-08-26T18:24:15.003Z,21.23
2022-08-26T18:29:19.449Z,19.37
2022-08-26T18:34:21.261Z,27.23
2022-08-26T18:39:23.497Z,24.90
2022-08-26T18:44:27.082Z,22.15
2022-08-26T18:49:29.022Z,29.52
2022-08-26T18:54:30.889Z,27.00
2022-08-26T18:59:34.108Z,38.13
2022-08-26T19:04:36.065Z,35.40
2022-08-26T19:09:37.826Z,33.00
2022-08-26T19:14:41.098Z,30.48
2022-08-26T19:19:42.913Z,29.87
2022-08-26T19:24:47.298Z,33.17
2022-08-26T19:29:50.531Z,27.52
2022-08-26T19:34:52.806Z,30.52
2022-08-26T19:39:54.585Z,30.77
2022-08-26T19:44:57.799Z,27.75
2022-08-26T19:49:59.668Z,68.95
2022-08-26T19:55:05.538Z,28.95
2022-08-26T20:00:10.887Z,31.62
2022-08-26T20:05:14.359Z,26.67
2022-08-26T20:10:18.042Z,26.52
2022-08-26T20:15:22.456Z,17.83
2022-08-26T20:20:32.717Z,25.50
2022-08-26T20:25:35.378Z,28.08
2022-08-26T20:30:38.539Z,27.23
2022-08-26T20:35:40.400Z,23.62
2022-08-26T20:40:42.353Z,24.92
2022-08-26T20:45:45.501Z,25.98
2022-08-26T20:50:47.317Z,23.83
2022-08-26T20:55:49.077Z,22.35
2022-08-26T21:00:52.302Z,25.00
2022-08-26T21:05:54.628Z,26.17
2022-08-26T21:10:56.455Z,22.62
2022-08-26T21:15:59.739Z,21.83
2022-08-26T21:21:03.892Z,29.10
2022-08-26T21:26:09.585Z,24.73
2022-08-26T21:31:16.250Z,20.60
2022-08-26T21:36:18.937Z,23.25
2022-08-26T21:41:21.586Z,25.17
2022-08-26T21:46:26.361Z,25.85
2022-08-26T21:51:30.020Z,21.17
2022-08-26T21:56:33.824Z,21.23
2022-08-26T22:01:37.192Z,27.33
2022-08-26T22:06:45.668Z,21.25
2022-08-26T22:11:47.741Z,19.75
2022-08-26T22:16:51.169Z,18.50
2022-08-26T22:21:54.905Z,24.27
2022-08-26T22:26:56.717Z,21.62
2022-08-26T22:32:00.507Z,21.40
2022-08-26T22:37:02.284Z,21.87
2022-08-26T22:42:04.403Z,23.33
2022-08-26T22:47:07.717Z,19.87
2022-08-26T22:52:09.544Z,24.48
2022-08-26T22:57:11.633Z,20.25
2022-08-26T23:02:14.797Z,20.83
2022-08-26T23:07:16.604Z,17.60
2022-08-26T23:12:18.426Z,20.12
2022-08-26T23:17:21.604Z,20.77
2022-08-26T23:22:23.571Z,23.58
2022-08-26T23:27:25.368Z,27.58
2022-08-26T23:32:28.547Z,23.60
2022-08-26T23:37:35.021Z,25.33
2022-08-26T23:42:38.002Z,19.77
2022-08-26T23:47:41.213Z,19.48
2022-08-26T23:52:43.226Z,21.55
2022-08-26T23:57:44.989Z,24.87
